sensor_id;sensor_type;location;lat;lon;timestamp;temperature;humidity
54178;DHT22;40085;53.004;6.770;2023-01-10T00:02:12;4.60;99.90
54178;DHT22;40085;53.004;6.770;2023-01-10T00:04:37;4.60;99.90
54178;DHT22;40085;53.004;6.770;2023-01-10T00:07:03;4.60;99.90
54178;DHT22;40085;53.004;6.770;2023-01-10T00:09:28;4.50;99.90
54178;DHT22;40085;53.004;6.770;2023-01-10T00:11:54;4.50;99.90
54178;DHT22;40085;53.004;6.770;2023-01-10T00:14:38;4.50;99.90
54178;DHT22;40085;53.004;6.770;2023-01-10T00:17:04;4.50;99.90
54178;DHT22;40085;53.004;6.770;2023-01-10T00:19:30;4.50;99.90
54178;DHT22;40085;53.004;6.770;2023-01-10T00:21:56;4.50;99.90
54178;DHT22;40085;53.004;6.770;2023-01-10T00:24:22;4.50;99.90
54178;DHT22;40085;53.004;6.770;2023-01-10T00:26:50;4.50;99.90
54178;DHT22;40085;53.004;6.770;2023-01-10T00:29:17;4.50;99.90
54178;DHT22;40085;53.004;6.770;2023-01-10T00:31:43;4.50;99.90
54178;DHT22;40085;53.004;6.770;2023-01-10T00:34:09;4.60;99.90
54178;DHT22;40085;53.004;6.770;2023-01-10T00:36:34;4.60;99.90
54178;DHT22;40085;53.004;6.770;2023-01-10T00:39:00;4.60;99.90
54178;DHT22;40085;53.004;6.770;2023-01-10T00:41:26;4.60;99.90
54178;DHT22;40085;53.004;6.770;2023-01-10T00:44:10;4.70;99.90
54178;DHT22;40085;53.004;6.770;2023-01-10T00:46:35;4.70;99.90
54178;DHT22;40085;53.004;6.770;2023-01-10T00:49:01;4.70;99.90
54178;DHT22;40085;53.004;6.770;2023-01-10T00:51:29;4.70;99.90
54178;DHT22;40085;53.004;6.770;2023-01-10T00:53:55;4.80;99.90
54178;DHT22;40085;53.004;6.770;2023-01-10T00:56:21;4.80;99.90
54178;DHT22;40085;53.004;6.770;2023-01-10T00:58:46;4.80;99.90
54178;DHT22;40085;53.004;6.770;2023-01-10T01:01:12;4.80;99.90
54178;DHT22;40085;53.004;6.770;2023-01-10T01:03:37;4.80;99.90
54178;DHT22;40085;53.004;6.770;2023-01-10T01:06:04;4.90;99.90
54178;DHT22;40085;53.004;6.770;2023-01-10T01:08:30;4.90;99.90
54178;DHT22;40085;53.004;6.770;2023-01-10T01:10:56;4.90;99.90
54178;DHT22;40085;53.004;6.770;2023-01-10T01:13:22;4.90;99.90
54178;DHT22;40085;53.004;6.770;2023-01-10T01:15:48;4.90;99.90
54178;DHT22;40085;53.004;6.770;2023-01-10T01:18:17;4.90;99.90
54178;DHT22;40085;53.004;6.770;2023-01-10T01:20:43;4.90;99.90
54178;DHT22;40085;53.004;6.770;2023-01-10T01:23:13;4.90;99.90
54178;DHT22;40085;53.004;6.770;2023-01-10T01:25:39;5.00;99.90
54178;DHT22;40085;53.004;6.770;2023-01-10T01:28:05;5.00;99.90
54178;DHT22;40085;53.004;6.770;2023-01-10T01:30:30;5.00;99.90
54178;DHT22;40085;53.004;6.770;2023-01-10T01:32:56;5.10;99.90
54178;DHT22;40085;53.004;6.770;2023-01-10T01:35:22;5.10;99.90
54178;DHT22;40085;53.004;6.770;2023-01-10T01:37:47;5.20;99.90
54178;DHT22;40085;53.004;6.770;2023-01-10T01:40:14;5.30;99.90
54178;DHT22;40085;53.004;6.770;2023-01-10T01:42:41;5.30;99.90
54178;DHT22;40085;53.004;6.770;2023-01-10T01:50:04;5.30;99.90
54178;DHT22;40085;53.004;6.770;2023-01-10T01:52:32;5.30;99.90
54178;DHT22;40085;53.004;6.770;2023-01-10T01:55:02;5.30;99.90
54178;DHT22;40085;53.004;6.770;2023-01-10T01:57:29;5.30;99.90
54178;DHT22;40085;53.004;6.770;2023-01-10T01:59:56;5.20;99.90
54178;DHT22;40085;53.004;6.770;2023-01-10T02:02:36;5.20;99.90
54178;DHT22;40085;53.004;6.770;2023-01-10T02:05:06;5.20;99.90
54178;DHT22;40085;53.004;6.770;2023-01-10T02:07:37;5.20;99.90
54178;DHT22;40085;53.004;6.770;2023-01-10T02:12:40;5.20;99.90
54178;DHT22;40085;53.004;6.770;2023-01-10T02:15:06;5.20;99.90
54178;DHT22;40085;53.004;6.770;2023-01-10T02:17:32;5.10;99.90
54178;DHT22;40085;53.004;6.770;2023-01-10T02:20:00;5.10;99.90
54178;DHT22;40085;53.004;6.770;2023-01-10T02:28:44;5.00;99.90
54178;DHT22;40085;53.004;6.770;2023-01-10T02:36:54;5.00;99.90
54178;DHT22;40085;53.004;6.770;2023-01-10T02:39:30;5.10;99.90
54178;DHT22;40085;53.004;6.770;2023-01-10T02:42:05;5.10;99.90
54178;DHT22;40085;53.004;6.770;2023-01-10T02:44:49;5.70;99.90
54178;DHT22;40085;53.004;6.770;2023-01-10T02:47:19;5.20;99.90
54178;DHT22;40085;53.004;6.770;2023-01-10T02:49:47;5.10;99.90
54178;DHT22;40085;53.004;6.770;2023-01-10T02:52:18;5.00;99.90
54178;DHT22;40085;53.004;6.770;2023-01-10T02:54:44;4.90;99.90
54178;DHT22;40085;53.004;6.770;2023-01-10T03:00:07;4.80;99.90
54178;DHT22;40085;53.004;6.770;2023-01-10T03:05:05;4.80;99.90
54178;DHT22;40085;53.004;6.770;2023-01-10T03:07:47;4.90;99.90
54178;DHT22;40085;53.004;6.770;2023-01-10T03:10:28;4.90;99.90
54178;DHT22;40085;53.004;6.770;2023-01-10T03:15:34;5.10;99.90
54178;DHT22;40085;53.004;6.770;2023-01-10T03:18:04;5.10;99.90
54178;DHT22;40085;53.004;6.770;2023-01-10T03:20:33;5.10;99.90
54178;DHT22;40085;53.004;6.770;2023-01-10T03:23:02;5.10;99.90
54178;DHT22;40085;53.004;6.770;2023-01-10T03:25:32;5.10;99.90
54178;DHT22;40085;53.004;6.770;2023-01-10T03:28:13;5.10;99.90
54178;DHT22;40085;53.004;6.770;2023-01-10T03:30:51;5.10;99.90
54178;DHT22;40085;53.004;6.770;2023-01-10T03:33:22;5.10;99.90
54178;DHT22;40085;53.004;6.770;2023-01-10T03:38:49;5.00;99.90
54178;DHT22;40085;53.004;6.770;2023-01-10T03:47:20;5.00;99.90
54178;DHT22;40085;53.004;6.770;2023-01-10T03:49:49;5.00;99.90
54178;DHT22;40085;53.004;6.770;2023-01-10T03:52:18;5.10;99.90
54178;DHT22;40085;53.004;6.770;2023-01-10T03:54:45;5.10;99.90
54178;DHT22;40085;53.004;6.770;2023-01-10T03:57:20;5.10;99.90
54178;DHT22;40085;53.004;6.770;2023-01-10T03:59:47;5.20;99.90
54178;DHT22;40085;53.004;6.770;2023-01-10T04:02:14;5.20;99.90
54178;DHT22;40085;53.004;6.770;2023-01-10T04:04:39;5.20;99.90
54178;DHT22;40085;53.004;6.770;2023-01-10T04:07:05;5.30;99.90
54178;DHT22;40085;53.004;6.770;2023-01-10T04:09:31;5.30;99.90
54178;DHT22;40085;53.004;6.770;2023-01-10T04:11:57;5.30;99.90
54178;DHT22;40085;53.004;6.770;2023-01-10T04:14:22;5.30;99.90
54178;DHT22;40085;53.004;6.770;2023-01-10T04:16:48;5.30;99.90
54178;DHT22;40085;53.004;6.770;2023-01-10T04:19:13;5.40;99.90
54178;DHT22;40085;53.004;6.770;2023-01-10T04:21:39;5.40;99.90
54178;DHT22;40085;53.004;6.770;2023-01-10T04:24:05;5.40;99.90
54178;DHT22;40085;53.004;6.770;2023-01-10T04:26:30;5.50;99.90
54178;DHT22;40085;53.004;6.770;2023-01-10T04:28:56;5.50;99.90
54178;DHT22;40085;53.004;6.770;2023-01-10T04:31:21;5.50;99.90
54178;DHT22;40085;53.004;6.770;2023-01-10T04:33:47;5.40;99.90
54178;DHT22;40085;53.004;6.770;2023-01-10T04:36:13;5.40;99.90
54178;DHT22;40085;53.004;6.770;2023-01-10T04:38:40;5.30;99.90
54178;DHT22;40085;53.004;6.770;2023-01-10T04:41:05;5.30;99.90
54178;DHT22;40085;53.004;6.770;2023-01-10T04:43:31;5.30;99.90
54178;DHT22;40085;53.004;6.770;2023-01-10T04:45:57;5.40;99.90
54178;DHT22;40085;53.004;6.770;2023-01-10T04:48:22;5.40;99.90
54178;DHT22;40085;53.004;6.770;2023-01-10T04:50:49;5.40;99.90
54178;DHT22;40085;53.004;6.770;2023-01-10T04:53:15;5.40;99.90
54178;DHT22;40085;53.004;6.770;2023-01-10T04:55:41;5.30;99.90
54178;DHT22;40085;53.004;6.770;2023-01-10T04:58:06;5.40;99.90
54178;DHT22;40085;53.004;6.770;2023-01-10T05:00:32;5.40;99.90
54178;DHT22;40085;53.004;6.770;2023-01-10T05:02:58;6.40;99.90
54178;DHT22;40085;53.004;6.770;2023-01-10T05:05:23;5.50;99.90
54178;DHT22;40085;53.004;6.770;2023-01-10T05:07:49;5.50;99.90
54178;DHT22;40085;53.004;6.770;2023-01-10T05:10:15;6.20;99.90
54178;DHT22;40085;53.004;6.770;2023-01-10T05:12:41;5.50;99.90
54178;DHT22;40085;53.004;6.770;2023-01-10T05:15:07;5.50;99.90
54178;DHT22;40085;53.004;6.770;2023-01-10T05:17:33;5.50;99.90
54178;DHT22;40085;53.004;6.770;2023-01-10T05:19:59;5.50;99.90
54178;DHT22;40085;53.004;6.770;2023-01-10T05:22:24;5.50;99.90
54178;DHT22;40085;53.004;6.770;2023-01-10T05:24:50;5.50;99.90
54178;DHT22;40085;53.004;6.770;2023-01-10T05:27:15;5.60;99.90
54178;DHT22;40085;53.004;6.770;2023-01-10T05:29:41;5.60;99.90
54178;DHT22;40085;53.004;6.770;2023-01-10T05:32:07;5.70;99.90
54178;DHT22;40085;53.004;6.770;2023-01-10T05:34:33;5.70;99.90
54178;DHT22;40085;53.004;6.770;2023-01-10T05:36:59;5.70;99.90
54178;DHT22;40085;53.004;6.770;2023-01-10T05:39:24;5.70;99.90
54178;DHT22;40085;53.004;6.770;2023-01-10T05:41:50;5.80;99.90
54178;DHT22;40085;53.004;6.770;2023-01-10T05:44:15;5.70;99.90
54178;DHT22;40085;53.004;6.770;2023-01-10T05:46:41;5.80;99.90
54178;DHT22;40085;53.004;6.770;2023-01-10T05:49:06;6.00;99.90
54178;DHT22;40085;53.004;6.770;2023-01-10T05:51:32;5.80;99.90
54178;DHT22;40085;53.004;6.770;2023-01-10T05:53:57;5.80;99.90
54178;DHT22;40085;53.004;6.770;2023-01-10T05:56:24;5.80;99.90
54178;DHT22;40085;53.004;6.770;2023-01-10T05:58:50;5.80;99.90
54178;DHT22;40085;53.004;6.770;2023-01-10T06:01:16;5.80;99.90
54178;DHT22;40085;53.004;6.770;2023-01-10T06:03:41;5.90;99.90
54178;DHT22;40085;53.004;6.770;2023-01-10T06:06:07;5.90;99.90
54178;DHT22;40085;53.004;6.770;2023-01-10T06:08:33;5.90;99.90
54178;DHT22;40085;53.004;6.770;2023-01-10T06:11:04;5.80;99.90
54178;DHT22;40085;53.004;6.770;2023-01-10T06:13:30;5.80;99.90
54178;DHT22;40085;53.004;6.770;2023-01-10T06:15:56;5.80;99.90
54178;DHT22;40085;53.004;6.770;2023-01-10T06:18:21;5.80;99.90
54178;DHT22;40085;53.004;6.770;2023-01-10T06:20:47;5.80;99.90
54178;DHT22;40085;53.004;6.770;2023-01-10T06:23:13;5.70;99.90
54178;DHT22;40085;53.004;6.770;2023-01-10T06:25:39;5.70;99.90
54178;DHT22;40085;53.004;6.770;2023-01-10T06:28:10;5.70;99.90
54178;DHT22;40085;53.004;6.770;2023-01-10T06:30:37;5.60;99.90
54178;DHT22;40085;53.004;6.770;2023-01-10T06:33:04;4.80;99.90
54178;DHT22;40085;53.004;6.770;2023-01-10T06:35:31;5.60;99.90
54178;DHT22;40085;53.004;6.770;2023-01-10T06:37:57;5.50;99.90
54178;DHT22;40085;53.004;6.770;2023-01-10T06:40:24;5.50;99.90
54178;DHT22;40085;53.004;6.770;2023-01-10T06:42:50;5.50;99.90
54178;DHT22;40085;53.004;6.770;2023-01-10T06:45:16;5.50;99.90
54178;DHT22;40085;53.004;6.770;2023-01-10T06:47:41;5.50;99.90
54178;DHT22;40085;53.004;6.770;2023-01-10T06:50:08;5.40;99.90
54178;DHT22;40085;53.004;6.770;2023-01-10T06:52:34;5.40;99.90
54178;DHT22;40085;53.004;6.770;2023-01-10T06:54:59;5.40;99.90
54178;DHT22;40085;53.004;6.770;2023-01-10T06:57:25;5.30;99.90
54178;DHT22;40085;53.004;6.770;2023-01-10T06:59:52;5.30;99.90
54178;DHT22;40085;53.004;6.770;2023-01-10T07:02:18;5.30;99.90
54178;DHT22;40085;53.004;6.770;2023-01-10T07:04:44;5.30;99.90
54178;DHT22;40085;53.004;6.770;2023-01-10T07:07:10;5.20;99.90
54178;DHT22;40085;53.004;6.770;2023-01-10T07:09:35;5.20;99.90
54178;DHT22;40085;53.004;6.770;2023-01-10T07:12:01;5.30;99.90
54178;DHT22;40085;53.004;6.770;2023-01-10T07:14:26;5.30;99.90
54178;DHT22;40085;53.004;6.770;2023-01-10T07:16:52;5.40;99.90
54178;DHT22;40085;53.004;6.770;2023-01-10T07:19:18;5.40;99.90
54178;DHT22;40085;53.004;6.770;2023-01-10T07:21:44;5.50;99.90
54178;DHT22;40085;53.004;6.770;2023-01-10T07:24:10;5.50;99.90
54178;DHT22;40085;53.004;6.770;2023-01-10T07:26:36;5.50;99.90
54178;DHT22;40085;53.004;6.770;2023-01-10T07:29:02;5.50;99.90
54178;DHT22;40085;53.004;6.770;2023-01-10T07:31:28;5.60;99.90
54178;DHT22;40085;53.004;6.770;2023-01-10T07:33:53;5.60;99.90
54178;DHT22;40085;53.004;6.770;2023-01-10T07:36:19;5.60;99.90
54178;DHT22;40085;53.004;6.770;2023-01-10T07:38:45;5.90;99.90
54178;DHT22;40085;53.004;6.770;2023-01-10T07:41:11;6.20;99.90
54178;DHT22;40085;53.004;6.770;2023-01-10T07:43:37;5.80;99.90
54178;DHT22;40085;53.004;6.770;2023-01-10T07:46:04;5.80;99.90
54178;DHT22;40085;53.004;6.770;2023-01-10T07:48:34;5.80;99.90
54178;DHT22;40085;53.004;6.770;2023-01-10T07:51:00;5.80;99.90
54178;DHT22;40085;53.004;6.770;2023-01-10T07:53:27;5.80;99.90
54178;DHT22;40085;53.004;6.770;2023-01-10T07:55:57;5.90;99.90
54178;DHT22;40085;53.004;6.770;2023-01-10T07:58:22;5.90;99.90
54178;DHT22;40085;53.004;6.770;2023-01-10T08:00:48;5.90;99.90
54178;DHT22;40085;53.004;6.770;2023-01-10T08:03:15;5.90;99.90
54178;DHT22;40085;53.004;6.770;2023-01-10T08:05:42;5.90;99.90
54178;DHT22;40085;53.004;6.770;2023-01-10T08:08:09;5.90;99.90
54178;DHT22;40085;53.004;6.770;2023-01-10T08:10:36;5.90;99.90
54178;DHT22;40085;53.004;6.770;2023-01-10T08:13:02;5.90;99.90
54178;DHT22;40085;53.004;6.770;2023-01-10T08:15:28;6.30;99.90
54178;DHT22;40085;53.004;6.770;2023-01-10T08:17:54;6.20;99.90
54178;DHT22;40085;53.004;6.770;2023-01-10T08:20:20;5.90;99.90
54178;DHT22;40085;53.004;6.770;2023-01-10T08:22:45;5.90;99.90
54178;DHT22;40085;53.004;6.770;2023-01-10T08:25:11;6.70;99.90
54178;DHT22;40085;53.004;6.770;2023-01-10T08:27:37;5.90;99.90
54178;DHT22;40085;53.004;6.770;2023-01-10T08:30:04;6.00;99.90
54178;DHT22;40085;53.004;6.770;2023-01-10T08:32:30;6.00;99.90
54178;DHT22;40085;53.004;6.770;2023-01-10T08:34:55;6.00;99.90
54178;DHT22;40085;53.004;6.770;2023-01-10T08:37:21;6.00;99.90
54178;DHT22;40085;53.004;6.770;2023-01-10T08:39:47;6.10;99.90
54178;DHT22;40085;53.004;6.770;2023-01-10T08:42:13;6.00;99.90
54178;DHT22;40085;53.004;6.770;2023-01-10T08:44:40;6.10;99.90
54178;DHT22;40085;53.004;6.770;2023-01-10T08:47:06;6.00;99.90
54178;DHT22;40085;53.004;6.770;2023-01-10T08:49:31;6.00;99.90
54178;DHT22;40085;53.004;6.770;2023-01-10T08:51:57;6.00;99.90
54178;DHT22;40085;53.004;6.770;2023-01-10T08:54:23;6.00;99.90
54178;DHT22;40085;53.004;6.770;2023-01-10T08:56:48;6.10;99.90
54178;DHT22;40085;53.004;6.770;2023-01-10T08:59:15;6.10;99.90
54178;DHT22;40085;53.004;6.770;2023-01-10T09:01:40;6.10;99.90
54178;DHT22;40085;53.004;6.770;2023-01-10T09:04:06;6.10;99.90
54178;DHT22;40085;53.004;6.770;2023-01-10T09:06:32;6.10;99.90
54178;DHT22;40085;53.004;6.770;2023-01-10T09:08:57;6.10;99.90
54178;DHT22;40085;53.004;6.770;2023-01-10T09:11:23;6.20;99.90
54178;DHT22;40085;53.004;6.770;2023-01-10T09:13:49;6.20;99.90
54178;DHT22;40085;53.004;6.770;2023-01-10T09:16:16;6.20;99.90
54178;DHT22;40085;53.004;6.770;2023-01-10T09:18:42;6.20;99.90
54178;DHT22;40085;53.004;6.770;2023-01-10T09:21:07;6.20;99.90
54178;DHT22;40085;53.004;6.770;2023-01-10T09:23:33;6.20;99.90
54178;DHT22;40085;53.004;6.770;2023-01-10T09:25:59;6.20;99.90
54178;DHT22;40085;53.004;6.770;2023-01-10T09:28:25;6.30;99.90
54178;DHT22;40085;53.004;6.770;2023-01-10T09:30:52;6.30;99.90
54178;DHT22;40085;53.004;6.770;2023-01-10T09:33:18;6.30;99.90
54178;DHT22;40085;53.004;6.770;2023-01-10T09:35:44;6.30;99.90
54178;DHT22;40085;53.004;6.770;2023-01-10T09:38:12;6.40;99.90
54178;DHT22;40085;53.004;6.770;2023-01-10T09:43:48;6.40;99.90
54178;DHT22;40085;53.004;6.770;2023-01-10T09:46:36;6.40;99.90
54178;DHT22;40085;53.004;6.770;2023-01-10T09:51:47;6.50;99.90
54178;DHT22;40085;53.004;6.770;2023-01-10T09:54:28;6.40;99.90
54178;DHT22;40085;53.004;6.770;2023-01-10T09:56:57;6.50;99.90
54178;DHT22;40085;53.004;6.770;2023-01-10T09:59:34;6.50;99.90
54178;DHT22;40085;53.004;6.770;2023-01-10T10:02:16;6.50;99.90
54178;DHT22;40085;53.004;6.770;2023-01-10T10:04:48;6.50;99.90
54178;DHT22;40085;53.004;6.770;2023-01-10T10:07:17;6.60;99.90
54178;DHT22;40085;53.004;6.770;2023-01-10T10:09:43;6.60;99.90
54178;DHT22;40085;53.004;6.770;2023-01-10T10:12:29;6.60;99.90
54178;DHT22;40085;53.004;6.770;2023-01-10T10:31:33;6.90;99.90
54178;DHT22;40085;53.004;6.770;2023-01-10T10:34:06;6.90;99.90
54178;DHT22;40085;53.004;6.770;2023-01-10T10:36:44;7.50;99.90
54178;DHT22;40085;53.004;6.770;2023-01-10T10:39:16;6.90;99.90
54178;DHT22;40085;53.004;6.770;2023-01-10T10:41:45;6.90;99.90
54178;DHT22;40085;53.004;6.770;2023-01-10T10:47:33;7.00;99.90
54178;DHT22;40085;53.004;6.770;2023-01-10T10:52:44;7.00;99.90
54178;DHT22;40085;53.004;6.770;2023-01-10T10:55:20;7.10;99.90
54178;DHT22;40085;53.004;6.770;2023-01-10T11:04:16;7.10;99.90
54178;DHT22;40085;53.004;6.770;2023-01-10T11:07:19;7.10;99.90
54178;DHT22;40085;53.004;6.770;2023-01-10T11:09:46;7.20;99.90
54178;DHT22;40085;53.004;6.770;2023-01-10T11:12:51;7.20;99.90
54178;DHT22;40085;53.004;6.770;2023-01-10T11:16:23;7.20;99.90
54178;DHT22;40085;53.004;6.770;2023-01-10T11:22:39;7.20;99.90
54178;DHT22;40085;53.004;6.770;2023-01-10T11:25:19;7.20;99.90
54178;DHT22;40085;53.004;6.770;2023-01-10T11:27:57;7.20;99.90
54178;DHT22;40085;53.004;6.770;2023-01-10T11:30:31;7.20;99.90
54178;DHT22;40085;53.004;6.770;2023-01-10T11:33:03;7.20;99.90
54178;DHT22;40085;53.004;6.770;2023-01-10T11:35:35;7.20;99.90
54178;DHT22;40085;53.004;6.770;2023-01-10T11:40:58;7.20;99.90
54178;DHT22;40085;53.004;6.770;2023-01-10T11:43:26;7.20;99.90
54178;DHT22;40085;53.004;6.770;2023-01-10T11:54:34;7.20;99.90
54178;DHT22;40085;53.004;6.770;2023-01-10T11:57:06;7.20;99.90
54178;DHT22;40085;53.004;6.770;2023-01-10T11:59:33;7.20;99.90
54178;DHT22;40085;53.004;6.770;2023-01-10T12:04:55;7.20;99.90
54178;DHT22;40085;53.004;6.770;2023-01-10T12:07:23;7.30;99.90
54178;DHT22;40085;53.004;6.770;2023-01-10T12:09:56;7.30;99.90
54178;DHT22;40085;53.004;6.770;2023-01-10T12:12:33;7.20;99.90
54178;DHT22;40085;53.004;6.770;2023-01-10T12:15:37;7.20;99.90
54178;DHT22;40085;53.004;6.770;2023-01-10T12:18:04;7.20;99.90
54178;DHT22;40085;53.004;6.770;2023-01-10T12:20:33;7.20;99.90
54178;DHT22;40085;53.004;6.770;2023-01-10T12:23:07;7.20;99.90
54178;DHT22;40085;53.004;6.770;2023-01-10T12:25:37;7.20;99.90
54178;DHT22;40085;53.004;6.770;2023-01-10T12:28:26;7.20;99.90
54178;DHT22;40085;53.004;6.770;2023-01-10T12:30:55;7.10;99.90
54178;DHT22;40085;53.004;6.770;2023-01-10T12:33:29;7.10;99.90
54178;DHT22;40085;53.004;6.770;2023-01-10T12:36:10;7.10;99.90
54178;DHT22;40085;53.004;6.770;2023-01-10T12:41:40;7.10;99.90
54178;DHT22;40085;53.004;6.770;2023-01-10T12:55:18;7.00;99.90
54178;DHT22;40085;53.004;6.770;2023-01-10T12:57:50;7.00;99.90
54178;DHT22;40085;53.004;6.770;2023-01-10T13:00:22;7.00;99.90
54178;DHT22;40085;53.004;6.770;2023-01-10T13:02:54;7.00;99.90
54178;DHT22;40085;53.004;6.770;2023-01-10T13:05:23;6.90;99.90
54178;DHT22;40085;53.004;6.770;2023-01-10T13:07:51;7.00;99.90
54178;DHT22;40085;53.004;6.770;2023-01-10T13:10:21;6.90;99.90
54178;DHT22;40085;53.004;6.770;2023-01-10T13:18:22;6.80;99.90
54178;DHT22;40085;53.004;6.770;2023-01-10T13:20:48;6.80;99.90
54178;DHT22;40085;53.004;6.770;2023-01-10T13:23:33;6.80;99.90
54178;DHT22;40085;53.004;6.770;2023-01-10T13:26:07;6.80;99.90
54178;DHT22;40085;53.004;6.770;2023-01-10T13:28:36;7.10;99.90
54178;DHT22;40085;53.004;6.770;2023-01-10T13:31:06;6.80;99.90
54178;DHT22;40085;53.004;6.770;2023-01-10T13:38:50;6.70;99.90
54178;DHT22;40085;53.004;6.770;2023-01-10T13:41:17;6.70;99.90
54178;DHT22;40085;53.004;6.770;2023-01-10T13:44:08;6.70;99.90
54178;DHT22;40085;53.004;6.770;2023-01-10T13:46:39;6.70;99.90
54178;DHT22;40085;53.004;6.770;2023-01-10T13:51:38;6.60;99.90
54178;DHT22;40085;53.004;6.770;2023-01-10T13:56:43;7.20;99.90
54178;DHT22;40085;53.004;6.770;2023-01-10T14:05:05;6.50;99.90
54178;DHT22;40085;53.004;6.770;2023-01-10T14:07:49;6.40;99.90
54178;DHT22;40085;53.004;6.770;2023-01-10T14:10:29;6.50;99.90
54178;DHT22;40085;53.004;6.770;2023-01-10T14:12:58;6.40;99.90
54178;DHT22;40085;53.004;6.770;2023-01-10T14:15:27;6.40;99.90
54178;DHT22;40085;53.004;6.770;2023-01-10T14:18:02;6.40;99.90
54178;DHT22;40085;53.004;6.770;2023-01-10T14:20:31;6.40;99.90
54178;DHT22;40085;53.004;6.770;2023-01-10T14:23:00;6.40;99.90
54178;DHT22;40085;53.004;6.770;2023-01-10T14:25:27;6.40;99.90
54178;DHT22;40085;53.004;6.770;2023-01-10T14:27:54;6.40;99.90
54178;DHT22;40085;53.004;6.770;2023-01-10T14:30:32;6.40;99.90
54178;DHT22;40085;53.004;6.770;2023-01-10T14:33:18;6.40;99.90
54178;DHT22;40085;53.004;6.770;2023-01-10T14:35:48;6.30;99.90
54178;DHT22;40085;53.004;6.770;2023-01-10T14:38:22;6.40;99.90
54178;DHT22;40085;53.004;6.770;2023-01-10T14:40:51;6.40;99.90
54178;DHT22;40085;53.004;6.770;2023-01-10T14:43:24;6.30;99.90
54178;DHT22;40085;53.004;6.770;2023-01-10T14:45:52;6.50;99.90
54178;DHT22;40085;53.004;6.770;2023-01-10T14:48:32;6.40;99.90
54178;DHT22;40085;53.004;6.770;2023-01-10T14:53:47;6.50;99.90
54178;DHT22;40085;53.004;6.770;2023-01-10T14:56:35;6.50;99.90
54178;DHT22;40085;53.004;6.770;2023-01-10T14:59:24;6.30;99.90
54178;DHT22;40085;53.004;6.770;2023-01-10T15:01:53;6.50;99.90
54178;DHT22;40085;53.004;6.770;2023-01-10T15:04:22;6.60;99.90
54178;DHT22;40085;53.004;6.770;2023-01-10T15:09:19;6.50;99.90
54178;DHT22;40085;53.004;6.770;2023-01-10T15:11:46;7.10;99.90
54178;DHT22;40085;53.004;6.770;2023-01-10T15:14:15;6.60;99.90
54178;DHT22;40085;53.004;6.770;2023-01-10T15:16:44;6.50;99.90
54178;DHT22;40085;53.004;6.770;2023-01-10T15:19:17;6.50;99.90
54178;DHT22;40085;53.004;6.770;2023-01-10T15:21:44;6.70;99.90
54178;DHT22;40085;53.004;6.770;2023-01-10T15:24:42;7.40;99.90
54178;DHT22;40085;53.004;6.770;2023-01-10T15:27:13;6.60;99.90
54178;DHT22;40085;53.004;6.770;2023-01-10T15:29:40;6.60;99.90
54178;DHT22;40085;53.004;6.770;2023-01-10T15:34:50;6.50;99.90
54178;DHT22;40085;53.004;6.770;2023-01-10T15:37:25;6.50;99.90
54178;DHT22;40085;53.004;6.770;2023-01-10T15:39:54;6.60;99.90
54178;DHT22;40085;53.004;6.770;2023-01-10T15:42:21;6.40;99.90
54178;DHT22;40085;53.004;6.770;2023-01-10T15:44:48;7.10;99.90
54178;DHT22;40085;53.004;6.770;2023-01-10T15:50:30;6.60;99.90
54178;DHT22;40085;53.004;6.770;2023-01-10T15:53:02;6.70;99.90
54178;DHT22;40085;53.004;6.770;2023-01-10T15:58:01;6.70;99.90
54178;DHT22;40085;53.004;6.770;2023-01-10T16:00:27;7.50;99.90
54178;DHT22;40085;53.004;6.770;2023-01-10T16:02:54;7.00;99.90
54178;DHT22;40085;53.004;6.770;2023-01-10T16:05:21;6.60;99.90
54178;DHT22;40085;53.004;6.770;2023-01-10T16:07:46;6.80;99.90
54178;DHT22;40085;53.004;6.770;2023-01-10T16:10:21;6.90;99.90
54178;DHT22;40085;53.004;6.770;2023-01-10T16:12:48;6.90;99.90
54178;DHT22;40085;53.004;6.770;2023-01-10T16:15:35;6.90;99.90
54178;DHT22;40085;53.004;6.770;2023-01-10T16:18:03;7.00;99.90
54178;DHT22;40085;53.004;6.770;2023-01-10T16:20:32;7.00;99.90
54178;DHT22;40085;53.004;6.770;2023-01-10T16:22:59;7.10;99.90
54178;DHT22;40085;53.004;6.770;2023-01-10T16:25:37;6.90;99.90
54178;DHT22;40085;53.004;6.770;2023-01-10T16:28:11;6.80;99.90
54178;DHT22;40085;53.004;6.770;2023-01-10T16:30:36;7.00;99.90
54178;DHT22;40085;53.004;6.770;2023-01-10T16:33:13;6.60;99.90
54178;DHT22;40085;53.004;6.770;2023-01-10T16:35:42;6.60;99.90
54178;DHT22;40085;53.004;6.770;2023-01-10T16:38:09;6.60;99.90
54178;DHT22;40085;53.004;6.770;2023-01-10T16:40:40;6.50;99.90
54178;DHT22;40085;53.004;6.770;2023-01-10T16:43:07;6.30;99.90
54178;DHT22;40085;53.004;6.770;2023-01-10T16:48:19;6.40;99.90
54178;DHT22;40085;53.004;6.770;2023-01-10T16:50:47;6.20;99.90
54178;DHT22;40085;53.004;6.770;2023-01-10T16:53:15;6.30;99.90
54178;DHT22;40085;53.004;6.770;2023-01-10T16:55:51;6.30;99.90
54178;DHT22;40085;53.004;6.770;2023-01-10T16:58:18;6.30;99.90
54178;DHT22;40085;53.004;6.770;2023-01-10T17:00:48;6.30;99.90
54178;DHT22;40085;53.004;6.770;2023-01-10T17:03:21;6.30;99.90
54178;DHT22;40085;53.004;6.770;2023-01-10T17:05:48;6.30;99.90
54178;DHT22;40085;53.004;6.770;2023-01-10T17:08:22;6.20;99.90
54178;DHT22;40085;53.004;6.770;2023-01-10T17:11:21;6.30;99.90
54178;DHT22;40085;53.004;6.770;2023-01-10T17:13:49;6.30;99.90
54178;DHT22;40085;53.004;6.770;2023-01-10T17:16:15;6.20;99.90
54178;DHT22;40085;53.004;6.770;2023-01-10T17:18:41;6.20;99.90
54178;DHT22;40085;53.004;6.770;2023-01-10T17:21:14;6.20;99.90
54178;DHT22;40085;53.004;6.770;2023-01-10T17:23:40;6.20;99.90
54178;DHT22;40085;53.004;6.770;2023-01-10T17:26:06;6.20;99.90
54178;DHT22;40085;53.004;6.770;2023-01-10T17:28:32;6.20;99.90
54178;DHT22;40085;53.004;6.770;2023-01-10T17:30:58;6.20;99.90
54178;DHT22;40085;53.004;6.770;2023-01-10T17:33:25;6.20;99.90
54178;DHT22;40085;53.004;6.770;2023-01-10T17:35:55;6.30;99.90
54178;DHT22;40085;53.004;6.770;2023-01-10T17:38:22;6.30;99.90
54178;DHT22;40085;53.004;6.770;2023-01-10T17:40:48;6.20;99.90
54178;DHT22;40085;53.004;6.770;2023-01-10T17:43:15;6.20;99.90
54178;DHT22;40085;53.004;6.770;2023-01-10T17:45:42;6.20;99.90
54178;DHT22;40085;53.004;6.770;2023-01-10T17:48:09;6.10;99.90
54178;DHT22;40085;53.004;6.770;2023-01-10T17:50:37;6.10;99.90
54178;DHT22;40085;53.004;6.770;2023-01-10T17:53:03;6.10;99.90
54178;DHT22;40085;53.004;6.770;2023-01-10T17:55:29;6.20;99.90
54178;DHT22;40085;53.004;6.770;2023-01-10T17:57:55;6.10;99.90
54178;DHT22;40085;53.004;6.770;2023-01-10T18:00:21;6.10;99.90
54178;DHT22;40085;53.004;6.770;2023-01-10T18:02:47;6.10;99.90
54178;DHT22;40085;53.004;6.770;2023-01-10T18:05:13;6.10;99.90
54178;DHT22;40085;53.004;6.770;2023-01-10T18:07:39;6.10;99.90
54178;DHT22;40085;53.004;6.770;2023-01-10T18:10:05;6.10;99.90
54178;DHT22;40085;53.004;6.770;2023-01-10T18:12:34;6.00;99.90
54178;DHT22;40085;53.004;6.770;2023-01-10T18:14:59;6.00;99.90
54178;DHT22;40085;53.004;6.770;2023-01-10T18:17:25;6.10;99.90
54178;DHT22;40085;53.004;6.770;2023-01-10T18:19:51;6.00;99.90